createdAt,value
2023-04-18T00:01:51.805Z,38.54
2023-04-18T00:04:20.301Z,38.51
2023-04-18T00:06:50.000Z,38.53
2023-04-18T00:09:18.078Z,38.54
2023-04-18T00:11:46.114Z,38.55
2023-04-18T00:14:14.633Z,38.62
2023-04-18T00:16:43.346Z,38.54
2023-04-18T00:19:11.405Z,38.51
2023-04-18T00:21:44.746Z,38.42
2023-04-18T00:24:13.037Z,38.49
2023-04-18T00:26:41.304Z,38.43
2023-04-18T00:29:09.375Z,38.53
2023-04-18T00:31:37.448Z,38.57
2023-04-18T00:34:05.397Z,38.52
2023-04-18T00:36:33.304Z,38.52
2023-04-18T00:39:01.303Z,38.53
2023-04-18T00:41:29.222Z,38.51
2023-04-18T00:43:57.211Z,38.45
2023-04-18T00:46:25.519Z,38.52
2023-04-18T00:48:53.599Z,38.51
2023-04-18T00:51:21.733Z,38.37
2023-04-18T00:53:49.604Z,38.49
2023-04-18T00:56:17.778Z,38.50
2023-04-18T00:58:45.787Z,38.57
2023-04-18T01:01:14.273Z,38.54
2023-04-18T01:03:42.434Z,38.45
2023-04-18T01:06:11.814Z,38.48
2023-04-18T01:08:39.814Z,38.44
2023-04-18T01:11:07.900Z,38.46
2023-04-18T01:13:35.858Z,38.45
2023-04-18T01:16:04.320Z,38.44
2023-04-18T01:23:39.130Z,38.39
2023-04-18T01:26:07.151Z,38.49
2023-04-18T01:28:36.712Z,38.56
2023-04-18T01:31:04.715Z,38.50
2023-04-18T01:33:32.813Z,38.49
2023-04-18T01:36:00.936Z,38.45
2023-04-18T01:38:33.144Z,38.38
2023-04-18T01:41:02.513Z,38.46
2023-04-18T01:43:30.451Z,38.48
2023-04-18T01:45:58.520Z,38.42
2023-04-18T01:48:26.588Z,38.41
2023-04-18T01:50:54.754Z,38.36
2023-04-18T01:53:24.109Z,38.38
2023-04-18T01:55:52.060Z,38.54
2023-04-18T01:58:23.701Z,38.45
2023-04-18T02:00:52.566Z,38.45
2023-04-18T02:03:20.940Z,38.47
2023-04-18T02:05:49.164Z,38.46
2023-04-18T02:08:17.167Z,38.49
2023-04-18T02:10:46.406Z,38.44
2023-04-18T02:13:15.253Z,38.49
2023-04-18T02:15:46.595Z,38.57
2023-04-18T02:18:17.441Z,38.48
2023-04-18T02:20:45.784Z,38.41
2023-04-18T02:23:13.703Z,38.53
2023-04-18T02:25:41.641Z,38.48
2023-04-18T02:28:10.634Z,38.47
2023-04-18T02:30:38.596Z,38.50
2023-04-18T02:33:06.635Z,38.51
2023-04-18T02:35:34.986Z,38.47
2023-04-18T02:38:03.054Z,38.55
2023-04-18T02:40:31.164Z,38.49
2023-04-18T02:43:02.096Z,38.52
2023-04-18T02:45:30.548Z,38.46
2023-04-18T02:47:59.567Z,38.50
2023-04-18T02:50:29.092Z,38.45
2023-04-18T02:52:57.250Z,38.42
2023-04-18T02:55:29.653Z,38.60
2023-04-18T02:57:59.068Z,38.53
2023-04-18T03:00:45.527Z,38.47
2023-04-18T03:03:16.548Z,38.49
2023-04-18T03:06:10.653Z,38.45
2023-04-18T03:08:39.003Z,38.53
2023-04-18T03:11:09.609Z,38.56
2023-04-18T03:13:37.873Z,38.55
2023-04-18T03:16:06.615Z,38.51
2023-04-18T03:18:34.940Z,38.53
2023-04-18T03:21:03.454Z,38.46
2023-04-18T03:23:31.882Z,38.47
2023-04-18T03:26:00.004Z,38.52
2023-04-18T03:28:29.375Z,38.53
2023-04-18T03:30:57.290Z,38.40
2023-04-18T03:33:25.345Z,38.53
2023-04-18T03:35:56.775Z,38.53
2023-04-18T03:38:24.753Z,38.43
2023-04-18T03:40:52.718Z,38.43
2023-04-18T03:43:25.078Z,38.48
2023-04-18T03:45:53.436Z,38.45
2023-04-18T03:48:21.782Z,38.46
2023-04-18T03:50:50.534Z,38.43
2023-04-18T03:53:18.576Z,38.51
2023-04-18T03:55:46.589Z,38.31
2023-04-18T03:58:16.315Z,38.51
2023-04-18T04:00:45.306Z,38.38
2023-04-18T04:03:13.408Z,38.50
2023-04-18T04:05:41.492Z,38.50
2023-04-18T04:08:09.681Z,38.52
2023-04-18T04:10:37.699Z,38.40
2023-04-18T04:13:05.722Z,38.50
2023-04-18T04:15:37.537Z,38.57
2023-04-18T04:18:07.563Z,38.43
2023-04-18T04:20:37.120Z,38.38
2023-04-18T04:23:11.033Z,38.38
2023-04-18T04:25:39.552Z,38.48
2023-04-18T04:28:14.444Z,38.40
2023-04-18T04:30:53.845Z,38.84
2023-04-18T04:33:27.970Z,40.31
2023-04-18T04:35:58.144Z,41.82
2023-04-18T04:38:27.562Z,42.57
2023-04-18T04:40:55.953Z,42.67
2023-04-18T04:43:24.761Z,43.19
2023-04-18T04:45:53.165Z,42.88
2023-04-18T04:48:24.898Z,43.01
2023-04-18T04:50:57.731Z,43.61
2023-04-18T04:53:30.226Z,43.37
2023-04-18T04:55:58.914Z,43.83
2023-04-18T04:58:27.148Z,43.41
2023-04-18T05:01:09.825Z,43.65
2023-04-18T05:03:38.599Z,44.18
2023-04-18T05:06:06.726Z,44.57
2023-04-18T05:08:34.788Z,44.61
2023-04-18T05:11:02.734Z,44.62
2023-04-18T05:13:30.701Z,44.61
2023-04-18T05:15:59.361Z,44.78
2023-04-18T05:18:27.292Z,44.80
2023-04-18T05:20:55.980Z,44.82
2023-04-18T05:23:24.083Z,44.45
2023-04-18T05:25:52.478Z,44.70
2023-04-18T05:28:20.377Z,42.45
2023-04-18T05:30:48.322Z,42.41
2023-04-18T05:33:16.695Z,42.91
2023-04-18T05:35:44.683Z,42.90
2023-04-18T05:38:12.734Z,43.03
2023-04-18T05:40:40.725Z,42.82
2023-04-18T05:43:08.683Z,42.86
2023-04-18T05:45:36.737Z,42.99
2023-04-18T05:48:04.773Z,42.85
2023-04-18T05:50:32.851Z,42.69
2023-04-18T05:53:01.333Z,42.56
2023-04-18T05:55:29.275Z,42.35
2023-04-18T05:57:57.265Z,42.28
2023-04-18T06:00:25.169Z,42.08
2023-04-18T06:02:53.414Z,42.21
2023-04-18T06:05:21.773Z,41.62
2023-04-18T06:07:50.074Z,41.68
2023-04-18T06:10:18.072Z,41.57
2023-04-18T06:12:46.220Z,41.57
2023-04-18T06:15:14.269Z,41.29
2023-04-18T06:17:42.253Z,41.40
2023-04-18T06:20:10.833Z,41.12
2023-04-18T06:22:38.830Z,41.15
2023-04-18T06:25:08.904Z,41.12
2023-04-18T06:27:37.816Z,40.83
2023-04-18T06:30:07.203Z,40.95
2023-04-18T06:32:35.460Z,40.68
2023-04-18T06:35:03.847Z,40.72
2023-04-18T06:37:31.888Z,40.62
2023-04-18T06:39:59.834Z,40.66
2023-04-18T06:42:27.877Z,40.47
2023-04-18T06:44:55.956Z,40.52
2023-04-18T06:47:24.109Z,40.37
2023-04-18T06:54:57.852Z,40.13
2023-04-18T06:57:26.060Z,39.99
2023-04-18T06:59:54.178Z,40.07
2023-04-18T07:02:22.295Z,40.06
2023-04-18T07:04:50.642Z,39.92
2023-04-18T07:09:52.920Z,38.49
2023-04-18T07:12:21.830Z,37.65
2023-04-18T07:14:49.792Z,37.88
2023-04-18T07:17:18.227Z,38.04
2023-04-18T07:19:46.349Z,38.14
2023-04-18T07:22:14.293Z,38.12
2023-04-18T07:24:42.740Z,38.37
2023-04-18T07:27:10.797Z,38.18
2023-04-18T07:29:38.820Z,38.05
2023-04-18T07:32:08.128Z,38.27
2023-04-18T07:34:37.503Z,38.16
2023-04-18T07:37:05.631Z,38.26
2023-04-18T07:39:35.993Z,38.22
2023-04-18T07:42:04.339Z,38.19
2023-04-18T07:44:32.297Z,38.16
2023-04-18T07:47:00.404Z,38.13
2023-04-18T07:49:28.430Z,38.18
2023-04-18T07:51:56.432Z,38.19
2023-04-18T07:54:24.461Z,38.18
2023-04-18T07:56:52.508Z,38.28
2023-04-18T07:59:20.899Z,37.69
2023-04-18T08:01:48.846Z,36.53
2023-04-18T08:04:16.822Z,36.42
2023-04-18T08:06:44.942Z,36.96
2023-04-18T08:09:13.293Z,36.91
2023-04-18T08:11:42.338Z,36.10
2023-04-18T08:14:10.568Z,35.13
2023-04-18T08:16:38.838Z,34.47
2023-04-18T08:19:06.884Z,34.83
2023-04-18T08:21:35.313Z,35.19
2023-04-18T08:24:03.283Z,35.40
2023-04-18T08:31:36.995Z,35.71
2023-04-18T08:34:05.284Z,35.64
2023-04-18T08:36:33.389Z,35.59
2023-04-18T08:39:01.944Z,35.70
2023-04-18T08:41:30.832Z,35.44
2023-04-18T08:46:38.381Z,35.50
2023-04-18T08:49:06.497Z,35.47
2023-04-18T08:57:09.181Z,35.62
2023-04-18T08:59:37.332Z,35.77
2023-04-18T09:02:06.602Z,35.76
2023-04-18T09:04:45.370Z,35.84
2023-04-18T09:07:30.907Z,35.77
2023-04-18T09:09:58.847Z,35.94
2023-04-18T09:12:49.966Z,35.90
2023-04-18T09:15:22.614Z,35.98
2023-04-18T09:17:53.466Z,35.98
2023-04-18T09:20:36.047Z,35.87
2023-04-18T09:23:05.533Z,36.08
2023-04-18T09:25:52.399Z,36.19
2023-04-18T09:28:30.819Z,36.16
2023-04-18T09:31:16.914Z,36.20
2023-04-18T09:33:57.031Z,35.89
2023-04-18T09:36:29.200Z,35.09
2023-04-18T09:38:57.511Z,34.70
2023-04-18T09:41:25.517Z,34.85
2023-04-18T09:44:15.789Z,35.00
2023-04-18T09:46:47.406Z,35.18
2023-04-18T09:49:16.894Z,35.11
2023-04-18T09:51:46.295Z,35.06
2023-04-18T09:54:17.659Z,35.04
2023-04-18T09:56:46.251Z,35.17
2023-04-18T09:59:18.075Z,35.06
2023-04-18T10:01:48.668Z,34.85
2023-04-18T10:04:17.042Z,34.96
2023-04-18T10:06:45.899Z,34.73
2023-04-18T10:09:13.945Z,34.47
2023-04-18T10:11:42.106Z,34.39
2023-04-18T10:14:11.824Z,34.38
2023-04-18T10:16:40.087Z,34.31
2023-04-18T10:19:27.489Z,34.22
2023-04-18T10:21:59.542Z,34.07
2023-04-18T10:24:47.970Z,33.95
2023-04-18T10:27:17.063Z,33.80
2023-04-18T10:29:54.420Z,33.79
2023-04-18T10:34:56.179Z,33.49
2023-04-18T10:40:08.295Z,33.36
2023-04-18T10:42:48.546Z,33.31
2023-04-18T10:45:19.722Z,33.25
2023-04-18T10:47:48.006Z,33.17
2023-04-18T10:50:16.482Z,33.10
2023-04-18T10:52:44.972Z,32.96
2023-04-18T10:55:18.360Z,32.84
2023-04-18T10:57:47.727Z,32.77
2023-04-18T11:00:17.417Z,32.84
2023-04-18T11:02:50.350Z,32.87
2023-04-18T11:05:26.847Z,32.58
2023-04-18T11:07:54.976Z,32.65
2023-04-18T11:10:25.602Z,32.57
2023-04-18T11:12:54.672Z,32.45
2023-04-18T11:15:23.757Z,32.50
2023-04-18T11:17:59.287Z,32.46
2023-04-18T11:20:27.805Z,32.40
2023-04-18T11:22:56.509Z,32.24
2023-04-18T11:25:27.853Z,32.22
2023-04-18T11:28:00.303Z,33.89
2023-04-18T11:30:31.366Z,33.75
2023-04-18T11:32:59.475Z,33.12
2023-04-18T11:38:00.739Z,31.84
2023-04-18T11:40:28.765Z,31.39
2023-04-18T11:42:56.810Z,31.40
2023-04-18T11:45:24.804Z,31.61
2023-04-18T11:47:55.574Z,31.46
2023-04-18T11:50:23.763Z,31.54
2023-04-18T11:52:53.048Z,31.57
2023-04-18T11:57:59.710Z,31.75
2023-04-18T12:00:30.928Z,32.02
2023-04-18T12:02:59.671Z,32.43
2023-04-18T12:05:32.024Z,33.06
2023-04-18T12:08:09.971Z,32.94
2023-04-18T12:10:38.263Z,32.79
2023-04-18T12:13:07.688Z,33.06
2023-04-18T12:15:38.767Z,33.05
2023-04-18T12:18:08.518Z,32.94
2023-04-18T12:20:46.083Z,33.02
2023-04-18T12:23:34.355Z,33.04
2023-04-18T12:26:16.075Z,33.14
2023-04-18T12:28:50.399Z,33.17
2023-04-18T12:31:18.541Z,33.11
2023-04-18T12:33:46.549Z,33.10
2023-04-18T12:36:14.581Z,31.90
2023-04-18T12:48:54.254Z,26.02
2023-04-18T12:51:22.914Z,26.57
2023-04-18T12:53:50.823Z,26.76
2023-04-18T12:56:18.858Z,26.90
2023-04-18T12:58:46.898Z,26.78
2023-04-18T13:01:15.321Z,27.12
2023-04-18T13:06:16.348Z,27.98
2023-04-18T13:08:45.264Z,27.44
2023-04-18T13:11:13.451Z,27.74
2023-04-18T13:13:41.462Z,27.32
2023-04-18T13:16:09.569Z,26.72
2023-04-18T13:18:37.513Z,26.64
2023-04-18T13:21:05.941Z,26.43
2023-04-18T13:23:33.936Z,26.49
2023-04-18T13:26:01.954Z,26.60
2023-04-18T13:28:30.526Z,26.90
2023-04-18T13:30:59.755Z,26.94
2023-04-18T13:33:27.854Z,27.21
2023-04-18T13:35:56.078Z,27.39
2023-04-18T13:38:24.162Z,27.07
2023-04-18T13:41:01.040Z,27.55
2023-04-18T13:43:36.782Z,27.62
2023-04-18T13:46:05.124Z,27.21
2023-04-18T13:48:33.143Z,27.16
2023-04-18T13:51:01.341Z,27.05
2023-04-18T13:53:30.851Z,26.77
2023-04-18T13:56:01.200Z,26.82
2023-04-18T13:58:29.230Z,26.71
2023-04-18T14:00:57.214Z,26.55
2023-04-18T14:03:25.938Z,26.62
2023-04-18T14:05:54.010Z,26.84
2023-04-18T14:08:22.039Z,26.91
2023-04-18T14:10:50.362Z,27.06
2023-04-18T14:13:18.424Z,27.22
2023-04-18T14:15:46.486Z,27.88
2023-04-18T14:18:14.617Z,28.63
2023-04-18T14:20:43.540Z,29.20
2023-04-18T14:23:11.471Z,29.85
2023-04-18T14:25:39.352Z,30.57
2023-04-18T14:28:09.712Z,30.51
2023-04-18T14:30:38.562Z,30.74
2023-04-18T14:33:06.798Z,31.01
2023-04-18T14:35:34.915Z,31.17
2023-04-18T14:38:02.884Z,31.42
2023-04-18T14:40:32.704Z,31.52
2023-04-18T14:43:01.123Z,31.64
2023-04-18T14:45:32.319Z,31.84
2023-04-18T14:48:01.020Z,31.90
2023-04-18T14:50:28.944Z,32.24
2023-04-18T14:52:56.944Z,32.33
2023-04-18T14:55:25.513Z,32.34
2023-04-18T14:57:54.835Z,32.87
2023-04-18T15:00:22.883Z,32.93
2023-04-18T15:02:51.142Z,32.99
2023-04-18T15:05:24.979Z,32.99
2023-04-18T15:07:53.126Z,33.18
2023-04-18T15:10:22.455Z,33.28
2023-04-18T15:12:51.222Z,33.38
2023-04-18T15:15:19.562Z,33.32
2023-04-18T15:17:47.604Z,33.34
2023-04-18T15:20:16.244Z,33.31
2023-04-18T15:22:44.266Z,33.42
2023-04-18T15:25:16.336Z,33.54
2023-04-18T15:27:44.434Z,33.71
2023-04-18T15:30:12.735Z,33.87
2023-04-18T15:35:10.401Z,33.77
2023-04-18T15:37:38.325Z,33.95
2023-04-18T15:40:09.337Z,33.91
2023-04-18T15:42:37.351Z,33.84
2023-04-18T15:45:05.811Z,34.20
2023-04-18T15:47:34.506Z,34.08
2023-04-18T15:50:03.497Z,34.02
2023-04-18T15:52:31.513Z,34.19
2023-04-18T15:55:00.361Z,34.15
2023-04-18T15:57:29.816Z,34.12
2023-04-18T15:59:59.404Z,34.03
2023-04-18T16:02:27.581Z,34.18
2023-04-18T16:04:55.720Z,34.17
2023-04-18T16:07:23.675Z,34.17
2023-04-18T16:09:51.554Z,34.44
2023-04-18T16:12:19.412Z,34.25
2023-04-18T16:14:47.448Z,34.48
2023-04-18T16:17:15.483Z,34.67
2023-04-18T16:19:43.952Z,34.84
2023-04-18T16:22:12.513Z,35.15
2023-04-18T16:24:42.175Z,35.55
2023-04-18T16:27:10.446Z,35.55
2023-04-18T16:29:38.346Z,35.89
2023-04-18T16:32:07.301Z,31.80
2023-04-18T16:34:35.184Z,29.82
2023-04-18T16:37:03.150Z,29.79
2023-04-18T16:39:31.328Z,28.92
2023-04-18T16:41:59.513Z,29.22
2023-04-18T16:49:33.313Z,32.66
2023-04-18T16:52:01.854Z,33.09
2023-04-18T16:54:29.833Z,33.29
2023-04-18T16:56:57.946Z,33.44
2023-04-18T16:59:26.145Z,33.44
2023-04-18T17:01:54.272Z,33.81
2023-04-18T17:04:23.354Z,34.01
2023-04-18T17:06:52.138Z,34.29
2023-04-18T17:09:20.522Z,34.41
2023-04-18T17:11:48.633Z,34.43
2023-04-18T17:14:17.480Z,34.60
2023-04-18T17:16:45.643Z,34.64
2023-04-18T17:19:14.238Z,34.60
2023-04-18T17:21:43.468Z,34.83
2023-04-18T17:24:11.561Z,34.86
2023-04-18T17:26:39.681Z,35.02
2023-04-18T17:29:08.257Z,35.20
2023-04-18T17:31:36.443Z,35.22
2023-04-18T17:34:04.401Z,35.37
2023-04-18T17:36:32.481Z,35.33
2023-04-18T17:39:07.007Z,35.42
2023-04-18T17:41:39.077Z,35.71
2023-04-18T17:44:08.483Z,35.76
2023-04-18T17:46:36.786Z,35.81
2023-04-18T17:49:05.048Z,35.82
2023-04-18T17:51:33.099Z,35.81
2023-04-18T17:54:01.022Z,36.06
2023-04-18T17:56:30.595Z,36.07
2023-04-18T17:58:58.576Z,36.14
2023-04-18T18:01:28.879Z,36.17
2023-04-18T18:03:57.284Z,36.29
2023-04-18T18:06:27.710Z,36.57
2023-04-18T18:08:56.162Z,36.19
2023-04-18T18:11:24.425Z,36.60
2023-04-18T18:13:55.683Z,36.66
2023-04-18T18:16:24.184Z,36.95
2023-04-18T18:18:52.282Z,37.08
2023-04-18T18:21:20.342Z,37.31
2023-04-18T18:23:48.519Z,37.62
2023-04-18T18:26:16.664Z,37.61
2023-04-18T18:28:44.665Z,37.90
2023-04-18T18:31:12.634Z,38.17
2023-04-18T18:33:41.332Z,38.33
2023-04-18T18:36:11.473Z,38.35
2023-04-18T18:38:39.436Z,38.29
2023-04-18T18:41:07.944Z,38.37
2023-04-18T18:43:35.919Z,38.26
2023-04-18T18:46:06.214Z,38.42
2023-04-18T18:48:36.993Z,38.34
2023-04-18T18:51:05.075Z,38.23
2023-04-18T18:53:33.150Z,38.00
2023-04-18T18:56:01.593Z,38.14
2023-04-18T18:58:29.714Z,38.00
2023-04-18T19:00:58.876Z,38.06
2023-04-18T19:03:27.165Z,37.99
2023-04-18T19:05:56.571Z,37.92
2023-04-18T19:08:24.588Z,37.79
2023-04-18T19:10:52.647Z,37.88
2023-04-18T19:13:21.492Z,37.78
2023-04-18T19:15:49.718Z,37.69
2023-04-18T19:18:20.255Z,37.72
2023-04-18T19:20:49.741Z,37.62
2023-04-18T19:23:19.438Z,37.62
2023-04-18T19:25:47.466Z,37.55
2023-04-18T19:28:18.070Z,37.38
2023-04-18T19:30:46.533Z,37.35
2023-04-18T19:33:14.549Z,37.32
2023-04-18T19:35:43.170Z,37.40
2023-04-18T19:38:12.378Z,37.30
2023-04-18T19:40:41.443Z,37.20
2023-04-18T19:43:09.509Z,37.16
2023-04-18T19:45:38.309Z,37.19
2023-04-18T19:48:06.469Z,37.09
2023-04-18T19:50:34.466Z,37.05
2023-04-18T19:53:02.349Z,36.93
2023-04-18T19:55:31.624Z,37.18
2023-04-18T19:57:59.807Z,36.95
2023-04-18T20:00:29.514Z,36.81
2023-04-18T20:02:59.111Z,36.86
2023-04-18T20:05:27.395Z,37.25
2023-04-18T20:07:55.557Z,37.35
2023-04-18T20:10:25.727Z,37.77
2023-04-18T20:12:53.716Z,38.03
2023-04-18T20:15:22.614Z,38.14
2023-04-18T20:17:50.756Z,38.36
2023-04-18T20:20:18.681Z,38.45
2023-04-18T20:22:47.516Z,38.49
2023-04-18T20:25:15.491Z,38.57
2023-04-18T20:27:43.595Z,38.60
2023-04-18T20:30:11.868Z,38.54
2023-04-18T20:32:39.934Z,38.70
2023-04-18T20:35:08.615Z,38.62
2023-04-18T20:37:36.760Z,38.61
2023-04-18T20:40:07.250Z,38.33
2023-04-18T20:42:36.712Z,38.26
2023-04-18T20:45:05.771Z,38.16
2023-04-18T20:47:34.741Z,38.08
2023-04-18T20:50:03.009Z,38.07
2023-04-18T20:52:31.103Z,38.09
2023-04-18T20:54:59.152Z,38.14
2023-04-18T20:57:27.424Z,38.25
2023-04-18T20:59:58.618Z,38.28
2023-04-18T21:02:26.800Z,38.23
2023-04-18T21:04:54.998Z,38.20
2023-04-18T21:07:23.024Z,38.18
2023-04-18T21:09:50.866Z,38.11
2023-04-18T21:12:18.956Z,38.15
2023-04-18T21:14:48.127Z,38.08
2023-04-18T21:17:17.513Z,38.28
2023-04-18T21:19:46.627Z,38.20
2023-04-18T21:22:15.280Z,38.15
2023-04-18T21:24:43.663Z,38.15
2023-04-18T21:27:11.727Z,38.27
2023-04-18T21:39:52.599Z,38.55
2023-04-18T21:42:20.633Z,38.55
2023-04-18T21:44:48.528Z,38.37
2023-04-18T21:47:16.496Z,38.36
2023-04-18T21:49:44.499Z,38.44
2023-04-18T21:54:45.572Z,38.17
2023-04-18T21:57:13.525Z,38.21
2023-04-18T21:59:41.493Z,38.22
2023-04-18T22:02:09.513Z,38.12
2023-04-18T22:04:38.221Z,38.07
2023-04-18T22:07:06.660Z,38.00
2023-04-18T22:09:36.262Z,38.02
2023-04-18T22:12:04.466Z,37.94
2023-04-18T22:14:32.516Z,38.01
2023-04-18T22:17:01.822Z,38.02
2023-04-18T22:19:31.347Z,37.85
2023-04-18T22:21:59.410Z,37.97
2023-04-18T22:24:27.516Z,37.84
2023-04-18T22:26:56.039Z,37.92
2023-04-18T22:29:24.038Z,37.89
2023-04-18T22:31:52.084Z,37.76
2023-04-18T22:34:20.094Z,37.97
2023-04-18T22:36:47.968Z,37.92
2023-04-18T22:39:16.046Z,37.85
2023-04-18T22:41:44.140Z,37.81
2023-04-18T22:44:12.322Z,37.76
2023-04-18T22:46:40.888Z,37.70
2023-04-18T22:49:08.958Z,37.71
2023-04-18T22:51:38.255Z,37.64
2023-04-18T22:54:06.404Z,37.80
2023-04-18T22:56:34.388Z,37.68
2023-04-18T22:59:02.427Z,37.72
2023-04-18T23:01:30.740Z,37.75
2023-04-18T23:03:58.933Z,37.71
2023-04-18T23:06:28.419Z,37.53
2023-04-18T23:08:56.558Z,37.60
2023-04-18T23:11:25.065Z,37.52
2023-04-18T23:13:52.949Z,37.55
2023-04-18T23:16:21.111Z,37.55
2023-04-18T23:18:49.092Z,37.60
2023-04-18T23:21:17.594Z,37.50
2023-04-18T23:23:45.681Z,37.52
2023-04-18T23:26:16.708Z,37.55
2023-04-18T23:28:44.760Z,37.55
2023-04-18T23:31:12.896Z,37.52
2023-04-18T23:33:41.030Z,37.52
2023-04-18T23:36:09.139Z,37.58
2023-04-18T23:38:38.455Z,37.46
2023-04-18T23:41:06.584Z,37.53
2023-04-18T23:43:34.776Z,37.58
2023-04-18T23:46:02.806Z,37.69
2023-04-18T23:48:30.689Z,37.48
2023-04-18T23:50:58.781Z,37.55
2023-04-18T23:53:27.682Z,37.44
2023-04-18T23:55:55.832Z,37.52
2023-04-18T23:58:23.712Z,37.54
